Time;durP1;ratioP1;P1;durP2;ratioP2;P2;SDS_P1;SDS_P2;PMS_P1;PMS_P2;Temp;Humidity;BMP_temperature;BMP_pressure;BME280_temperature;BME280_humidity;BME280_pressure;Samples;Min_cycle;Max_cycle;Signal;HPM_P1;HPM_P2
2021/08/28 00:00:03;;;;;;;11.30;5.30;;;;;;;12.40;94.12;101797.31;2099693;28;20029;-60
2021/08/28 00:01:03;;;;;;;12.90;6.22;;;;;;;12.40;94.35;101799.91;2099691;28;20598;-60
2021/08/28 00:02:04;;;;;;;6.43;4.60;;;;;;;12.39;94.31;101803.44;2099710;28;20140;-60
2021/08/28 00:03:04;;;;;;;9.30;4.67;;;;;;;12.40;94.75;101800.78;2090688;28;20037;-61
2021/08/28 00:04:04;;;;;;;15.10;5.37;;;;;;;12.39;94.50;101796.47;2090736;28;20106;-60
2021/08/28 00:05:05;;;;;;;12.83;6.40;;;;;;;12.39;94.40;101787.75;2099818;28;20111;-60
2021/08/28 00:06:05;;;;;;;10.70;5.70;;;;;;;12.40;94.56;101794.69;2099624;28;20150;-61
2021/08/28 00:07:06;;;;;;;9.27;5.30;;;;;;;12.39;94.45;101795.59;2099702;28;20155;-60
2021/08/28 00:08:06;;;;;;;10.20;5.40;;;;;;;12.38;94.22;101791.28;2090721;28;20075;-60
2021/08/28 00:09:06;;;;;;;9.43;3.37;;;;;;;12.38;94.36;101791.28;2090717;28;20092;-60
2021/08/28 00:10:07;;;;;;;8.13;3.93;;;;;;;12.35;94.47;101787.84;2090600;28;20025;-61
2021/08/28 00:11:07;;;;;;;7.75;4.20;;;;;;;12.34;94.11;101787.91;2090787;28;20021;-60
2021/08/28 00:12:07;;;;;;;6.40;3.40;;;;;;;12.32;94.58;101790.56;2099555;28;20071;-60
2021/08/28 00:13:08;;;;;;;8.73;4.00;;;;;;;12.30;94.70;101792.41;2099559;28;20059;-60
2021/08/28 00:14:08;;;;;;;11.87;4.27;;;;;;;12.27;94.18;101794.25;2099517;28;20024;-60
2021/08/28 00:15:09;;;;;;;8.27;4.25;;;;;;;12.22;94.54;101782.19;2090411;28;20055;-60
2021/08/28 00:16:10;;;;;;;9.35;5.35;;;;;;;12.22;94.46;101791.81;2090757;28;20088;-60
2021/08/28 00:17:10;;;;;;;9.25;5.00;;;;;;;12.20;94.61;101788.38;2099498;28;20474;-60
2021/08/28 00:18:10;;;;;;;7.07;4.27;;;;;;;12.19;94.11;101792.78;2099511;28;20017;-61
2021/08/28 00:19:11;;;;;;;8.27;6.00;;;;;;;12.20;94.70;101788.38;2099422;28;20592;-60
2021/08/28 00:20:12;;;;;;;10.30;5.73;;;;;;;12.18;93.98;101787.59;2099434;28;20024;-60
2021/08/28 00:21:12;;;;;;;11.02;8.43;;;;;;;12.19;94.90;101786.69;2090648;28;20162;-60
2021/08/28 00:22:13;;;;;;;8.90;4.53;;;;;;;12.17;94.67;101789.34;2090427;28;20063;-61
2021/08/28 00:23:13;;;;;;;8.73;5.30;;;;;;;12.16;94.98;101787.63;2099380;28;20103;-61
2021/08/28 00:24:13;;;;;;;10.20;4.10;;;;;;;12.15;94.39;101791.13;2099397;28;20028;-61
2021/08/28 00:25:13;;;;;;;6.93;4.33;;;;;;;12.12;94.59;101786.03;2099534;28;20408;-60
2021/08/28 00:26:14;;;;;;;14.50;6.77;;;;;;;12.12;95.07;101779.94;2099424;28;20024;-61
2021/08/28 00:27:14;;;;;;;10.83;4.97;;;;;;;12.12;94.48;101790.41;2099448;28;20024;-60
2021/08/28 00:28:15;;;;;;;13.87;4.27;;;;;;;12.12;94.45;101790.41;2099401;28;20426;-62
2021/08/28 00:29:15;;;;;;;10.60;4.88;;;;;;;12.10;94.99;101786.09;2099306;28;20393;-61
2021/08/28 00:30:15;;;;;;;8.47;4.43;;;;;;;12.10;94.53;101788.69;2098223;28;20021;-60
2021/08/28 00:31:15;;;;;;;10.00;5.20;;;;;;;12.14;95.56;101784.22;2099440;28;20044;-61
2021/08/28 00:32:16;;;;;;;10.87;4.93;;;;;;;12.17;95.43;101784.09;2090453;28;20506;-61
2021/08/28 00:33:16;;;;;;;6.57;4.50;;;;;;;12.19;95.31;101779.69;2090538;28;20115;-61
2021/08/28 00:34:17;;;;;;;8.65;5.53;;;;;;;12.19;95.28;101771.84;2099254;28;20091;-60
2021/08/28 00:35:17;;;;;;;9.07;5.50;;;;;;;12.21;95.37;101777.00;2090400;28;20075;-60
2021/08/28 00:36:17;;;;;;;9.33;5.77;;;;;;;12.21;94.92;101777.88;2090570;28;20505;-60
2021/08/28 00:37:17;;;;;;;9.03;3.83;;;;;;;12.19;95.02;101777.06;2099340;28;20527;-61
2021/08/28 00:38:18;;;;;;;8.43;5.60;;;;;;;12.18;95.18;101784.97;2090305;28;20041;-60
2021/08/28 00:39:18;;;;;;;11.73;4.43;;;;;;;12.16;95.39;101778.94;2090493;28;20154;-60
2021/08/28 00:40:18;;;;;;;9.07;5.30;;;;;;;12.19;95.49;101779.69;2099346;28;20074;-61
2021/08/28 00:41:19;;;;;;;7.13;3.53;;;;;;;12.21;95.78;101777.88;2099381;28;20052;-60
2021/08/28 00:42:19;;;;;;;6.13;3.47;;;;;;;12.21;95.52;101783.09;2099344;28;20021;-61
2021/08/28 00:43:19;;;;;;;9.37;4.37;;;;;;;12.21;95.62;101784.84;2099310;28;20023;-60
2021/08/28 00:44:19;;;;;;;8.27;4.40;;;;;;;12.19;95.44;101774.47;2099243;28;20389;-60
2021/08/28 00:45:22;;;;;;;9.53;4.83;;;;;;;12.19;94.98;101786.69;2099269;28;20112;-60
2021/08/28 00:46:22;;;;;;;11.85;6.43;;;;;;;12.16;95.39;101785.03;2099198;28;20012;-60
2021/08/28 00:47:26;;;;;;;9.57;7.03;;;;;;;12.18;95.50;101784.97;2099354;28;20470;-61
2021/08/28 00:48:26;;;;;;;7.07;5.68;;;;;;;12.17;95.84;101783.25;2099168;28;20489;-62
2021/08/28 00:49:27;;;;;;;10.83;5.47;;;;;;;12.21;95.25;101787.47;2099294;28;20036;-62
2021/08/28 00:50:28;;;;;;;8.13;4.50;;;;;;;12.22;95.23;101791.81;2099262;28;20455;-60
2021/08/28 00:51:29;;;;;;;12.02;6.68;;;;;;;12.25;94.90;101796.91;2099300;28;20412;-61
2021/08/28 00:52:30;;;;;;;10.77;5.07;;;;;;;12.28;95.14;101781.13;2099234;28;20024;-61
2021/08/28 00:53:32;;;;;;;8.80;5.03;;;;;;;12.32;95.86;101787.94;2099271;28;20035;-61
2021/08/28 00:54:33;;;;;;;12.27;7.63;;;;;;;12.34;95.71;101786.16;2099209;28;20032;-61
2021/08/28 00:55:37;;;;;;;11.65;7.15;;;;;;;12.37;95.55;101785.19;2090404;28;20037;-60
2021/08/28 00:56:39;;;;;;;10.00;6.28;;;;;;;12.39;95.67;101788.63;2090884;28;20036;-60
2021/08/28 00:57:39;;;;;;;9.27;7.07;;;;;;;12.41;95.92;101785.91;2099165;28;20107;-60
2021/08/28 00:58:41;;;;;;;9.00;6.57;;;;;;;12.43;95.37;101787.59;2099066;28;20104;-61
2021/08/28 00:59:41;;;;;;;9.18;6.13;;;;;;;12.44;95.48;101791.03;2099166;28;20025;-61
2021/08/28 01:00:46;;;;;;;10.47;7.40;;;;;;;12.48;95.85;101793.50;2090260;28;20433;-61
2021/08/28 01:01:46;;;;;;;11.50;5.15;;;;;;;12.51;95.65;101787.31;2090805;28;20025;-61
2021/08/28 01:02:49;;;;;;;10.55;5.35;;;;;;;12.51;95.50;101792.53;2099081;28;20367;-61
2021/08/28 01:03:59;;;;;;;17.60;8.05;;;;;;;12.51;95.70;101792.53;2090161;28;20032;-60
2021/08/28 01:05:06;;;;;;;14.00;6.70;;;;;;;12.53;95.21;101790.75;2091587;28;20025;-60
2021/08/28 01:06:12;;;;;;;14.50;8.00;;;;;;;12.55;95.56;101796.75;2099129;28;20040;-61
2021/08/28 01:07:28;;;;;;;12.27;7.82;;;;;;;12.53;95.56;101782.88;2090233;28;20391;-61
2021/08/28 01:08:37;;;;;;;8.95;6.00;;;;;;;12.55;95.27;101786.28;2092481;28;20040;-61
2021/08/28 01:09:40;;;;;;;9.88;6.55;;;;;;;12.56;95.12;101790.59;2099097;28;20024;-60
2021/08/28 01:10:46;;;;;;;9.55;6.38;;;;;;;12.58;95.44;101787.94;2099017;28;20020;-61
2021/08/28 01:12:06;;;;;;;11.85;6.25;;;;;;;12.58;95.58;101786.19;2099116;28;20393;-61
2021/08/28 01:13:11;;;;;;;10.50;6.40;;;;;;;12.58;95.95;101783.56;2099104;28;20508;-60
2021/08/28 01:14:16;;;;;;;10.63;7.53;;;;;;;12.59;95.86;101787.88;2099005;28;20016;-60
2021/08/28 01:15:23;;;;;;;11.38;7.90;;;;;;;12.57;95.45;101787.09;2098903;28;20048;-61
2021/08/28 01:16:26;;;;;;;11.85;7.20;;;;;;;12.55;95.49;101775.81;2099086;28;20020;-60
2021/08/28 01:17:27;;;;;;;11.50;7.45;;;;;;;12.54;95.94;101781.97;2090038;28;20021;-61
2021/08/28 01:18:28;;;;;;;11.00;7.78;;;;;;;12.56;95.57;101785.38;2090180;28;20087;-60
2021/08/28 01:19:52;;;;;;;9.45;7.82;;;;;;;12.53;95.81;101795.97;2099031;28;20040;-61
2021/08/28 01:21:06;;;;;;;10.63;7.55;;;;;;;12.53;95.61;101785.50;2098993;28;20025;-61
2021/08/28 01:22:09;;;;;;;12.32;4.90;;;;;;;12.52;95.83;101789.00;2099061;28;20028;-61
2021/08/28 01:23:11;;;;;;;9.10;6.97;;;;;;;12.52;95.66;101789.00;2098881;28;20035;-60
2021/08/28 01:24:14;;;;;;;10.30;6.07;;;;;;;12.49;95.30;101789.97;2098892;28;20016;-61
2021/08/28 01:25:15;;;;;;;8.23;6.55;;;;;;;12.53;96.05;101793.38;2090118;28;20036;-60
2021/08/28 01:26:19;;;;;;;;;;;;;;;12.54;95.81;101781.09;2090607;28;20074;-60
2021/08/28 01:27:28;;;;;;;8.43;4.75;;;;;;;12.56;95.69;101784.53;2098888;28;19912;-60
2021/08/28 01:28:33;;;;;;;12.70;7.13;;;;;;;12.59;96.03;101787.88;2098952;28;20390;-61
2021/08/28 01:29:35;;;;;;;16.65;6.60;;;;;;;12.62;95.85;101785.16;2098952;28;20470;-61
2021/08/28 01:30:40;;;;;;;12.40;5.28;;;;;;;12.62;95.64;101779.94;2098966;28;20036;-61
2021/08/28 01:31:41;;;;;;;11.35;6.07;;;;;;;12.62;95.54;101773.81;2098902;28;20381;-60
2021/08/28 01:32:44;;;;;;;13.68;7.05;;;;;;;12.64;95.49;101776.38;2098901;28;20029;-61
2021/08/28 01:33:45;;;;;;;13.30;6.07;;;;;;;12.62;96.09;101772.06;2098865;28;20020;-60
2021/08/28 01:34:46;;;;;;;10.35;5.38;;;;;;;12.62;95.67;101769.47;2098881;28;20424;-61
2021/08/28 01:35:47;;;;;;;;;;;;;;;12.62;95.81;101769.47;2090446;28;20041;-61
2021/08/28 01:36:49;;;;;;;9.50;5.57;;;;;;;12.61;95.51;101770.38;2090141;28;19913;-61
2021/08/28 01:37:51;;;;;;;7.60;5.43;;;;;;;12.58;95.55;101767.84;2098791;28;20025;-59
2021/08/28 01:38:52;;;;;;;11.10;7.50;;;;;;;12.60;95.79;101776.50;2098790;28;20062;-61
2021/08/28 01:39:57;;;;;;;8.35;4.85;;;;;;;12.59;95.65;101777.41;2098747;28;20031;-61
2021/08/28 01:40:58;;;;;;;10.32;6.00;;;;;;;12.59;95.57;101774.78;2098621;28;20105;-60
2021/08/28 01:42:01;;;;;;;9.38;6.43;;;;;;;12.59;95.38;101773.97;2098682;28;20075;-59
2021/08/28 01:43:02;;;;;;;11.75;7.22;;;;;;;12.58;95.59;101769.63;2098833;28;20029;-61
2021/08/28 01:44:03;;;;;;;8.00;7.20;;;;;;;12.58;95.09;101767.84;2098978;28;20141;-60
2021/08/28 01:45:04;;;;;;;11.85;8.23;;;;;;;12.57;95.81;101776.63;2098887;28;20086;-61
2021/08/28 01:46:04;;;;;;;11.10;8.05;;;;;;;12.56;95.75;101768.84;2089864;28;20520;-60
2021/08/28 01:47:08;;;;;;;11.75;7.63;;;;;;;12.55;95.31;101769.72;2089865;28;20039;-60
2021/08/28 01:48:12;;;;;;;9.82;7.28;;;;;;;12.57;95.17;101771.41;2098779;28;20023;-61
2021/08/28 01:49:14;;;;;;;12.25;6.40;;;;;;;12.59;95.41;101774.78;2098729;28;20025;-61
2021/08/28 01:50:15;;;;;;;;;;;;;;;12.60;95.43;101771.25;2099176;28;20381;-61
2021/08/28 01:51:16;;;;;;;13.48;7.22;;;;;;;12.61;95.58;101778.22;2098871;28;19912;-61
2021/08/28 01:52:17;;;;;;;9.43;7.82;;;;;;;12.64;95.60;101773.78;2098779;28;20433;-60
2021/08/28 01:53:19;;;;;;;14.18;8.32;;;;;;;12.64;95.89;101772.03;2098758;28;20024;-60
2021/08/28 01:54:19;;;;;;;10.73;7.35;;;;;;;12.65;95.78;101778.97;2098755;28;20016;-60
2021/08/28 01:55:19;;;;;;;10.15;8.48;;;;;;;12.67;95.73;101777.16;2098790;28;20023;-60
2021/08/28 01:56:20;;;;;;;8.40;7.33;;;;;;;12.68;95.87;101775.38;2098801;28;20043;-60
2021/08/28 01:57:20;;;;;;;9.45;7.80;;;;;;;12.70;95.74;101782.25;2089893;28;20048;-60
2021/08/28 01:58:22;;;;;;;13.55;8.10;;;;;;;12.71;95.99;101778.75;2089966;28;20116;-60
2021/08/28 01:59:23;;;;;;;14.55;8.60;;;;;;;12.73;95.98;101781.31;2098591;28;20108;-59
2021/08/28 02:00:23;;;;;;;10.23;7.97;;;;;;;12.75;96.22;101784.72;2098760;28;20474;-60
2021/08/28 02:01:23;;;;;;;12.87;8.37;;;;;;;12.76;96.23;101786.41;2098664;28;20470;-60
2021/08/28 02:02:24;;;;;;;8.75;6.55;;;;;;;12.78;96.39;101781.13;2098658;28;20039;-60
2021/08/28 02:03:24;;;;;;;16.50;8.00;;;;;;;12.81;96.28;101786.25;2098698;28;20027;-60
2021/08/28 02:04:24;;;;;;;12.17;7.53;;;;;;;12.81;96.69;101784.50;2098718;28;20029;-60
2021/08/28 02:05:27;;;;;;;13.33;9.27;;;;;;;12.85;96.63;101788.72;2089768;28;20112;-60
2021/08/28 02:06:50;;;;;;;9.43;6.93;;;;;;;12.86;96.19;101790.41;2081733;28;20029;-61
2021/08/28 02:07:58;;;;;;;11.38;7.43;;;;;;;12.88;96.59;101782.50;2093026;28;20389;-61
2021/08/28 02:09:04;;;;;;;10.65;8.23;;;;;;;12.92;96.38;101791.09;2098657;28;20024;-60
2021/08/28 02:10:41;;;;;;;9.15;7.18;;;;;;;12.93;96.79;101787.59;2098656;28;20024;-60
2021/08/28 02:12:01;;;;;;;11.23;7.68;;;;;;;12.94;96.44;101778.81;2098445;28;20040;-60
2021/08/28 02:13:09;;;;;;;11.27;8.52;;;;;;;12.94;96.48;101779.66;2098589;28;20028;-59
2021/08/28 02:14:24;;;;;;;10.63;7.85;;;;;;;12.96;96.03;101787.44;2098560;28;20028;-61
2021/08/28 02:15:47;;;;;;;12.07;8.48;;;;;;;12.97;96.72;101782.16;2098341;28;20032;-61
2021/08/28 02:16:47;;;;;;;14.70;9.00;;;;;;;12.97;96.89;101781.31;2098628;28;20454;-60
2021/08/28 02:17:57;;;;;;;9.07;7.03;;;;;;;12.98;96.50;101783.00;2098623;28;20048;-60
2021/08/28 02:19:10;;;;;;;9.50;7.10;;;;;;;12.98;96.20;101777.78;2098467;28;20378;-61
2021/08/28 02:20:15;;;;;;;9.15;7.13;;;;;;;13.00;96.68;101786.41;2098550;28;20036;-61
2021/08/28 02:21:17;;;;;;;8.57;7.57;;;;;;;13.00;96.30;101778.56;2098534;28;20012;-60
2021/08/28 02:22:23;;;;;;;13.88;8.48;;;;;;;13.00;96.76;101778.56;2098561;28;20013;-60
2021/08/28 02:23:31;;;;;;;12.10;6.93;;;;;;;13.01;96.36;101775.03;2098514;28;20553;-61
2021/08/28 02:24:35;;;;;;;11.05;7.93;;;;;;;13.02;96.04;101779.38;2098521;28;20478;-60
2021/08/28 02:25:48;;;;;;;10.52;7.07;;;;;;;13.03;95.58;101781.06;2098593;28;20543;-61
2021/08/28 02:27:10;;;;;;;7.68;6.28;;;;;;;13.02;95.95;101774.13;2098547;28;20028;-60
2021/08/28 02:28:13;;;;;;;10.30;8.10;;;;;;;13.03;95.72;101775.81;2098515;28;20075;-60
2021/08/28 02:29:21;;;;;;;10.45;7.88;;;;;;;13.03;95.83;101765.34;2098488;28;20087;-60
2021/08/28 02:30:21;;;;;;;10.32;8.02;;;;;;;13.03;95.97;101762.72;2098563;28;20024;-60
2021/08/28 02:31:28;;;;;;;10.73;6.30;;;;;;;13.04;95.62;101768.81;2098431;28;20020;-60
2021/08/28 02:32:30;;;;;;;8.35;6.60;;;;;;;13.03;95.71;101754.88;2098564;28;20031;-59
2021/08/28 02:33:33;;;;;;;9.30;6.53;;;;;;;13.05;96.06;101767.91;2098452;28;20070;-60
2021/08/28 02:34:35;;;;;;;10.38;7.10;;;;;;;13.05;95.69;101765.28;2098481;28;20024;-60
2021/08/28 02:35:36;;;;;;;12.60;7.82;;;;;;;13.04;95.63;101761.84;2098441;28;20363;-60
2021/08/28 02:36:39;;;;;;;15.30;9.05;;;;;;;13.05;95.82;101776.63;2098562;28;20050;-61
2021/08/28 02:37:41;;;;;;;10.63;7.45;;;;;;;13.04;95.58;101774.94;2098515;28;20401;-61
2021/08/28 02:38:43;;;;;;;7.80;6.55;;;;;;;13.04;95.33;101769.69;2098431;28;20031;-59
2021/08/28 02:39:45;;;;;;;15.10;9.38;;;;;;;13.08;95.76;101775.66;2098413;28;20021;-61
2021/08/28 02:40:47;;;;;;;;;;;;;;;13.08;95.77;101779.16;2098940;28;20382;-60
2021/08/28 02:41:49;;;;;;;18.42;8.60;;;;;;;13.08;95.95;101771.28;2098421;28;20389;-60
2021/08/28 02:42:50;;;;;;;11.43;7.78;;;;;;;13.09;95.50;101767.75;2098457;28;20111;-60
2021/08/28 02:43:51;;;;;;;8.75;6.43;;;;;;;13.09;95.42;101772.97;2089401;28;20540;-59
2021/08/28 02:44:51;;;;;;;9.73;6.68;;;;;;;13.11;95.64;101772.94;2089612;28;20095;-60
2021/08/28 02:45:53;;;;;;;9.03;6.77;;;;;;;13.10;95.54;101764.19;2098432;28;20366;-60
2021/08/28 02:46:55;;;;;;;10.45;7.72;;;;;;;13.11;95.46;101763.28;2098474;28;20027;-59
2021/08/28 02:47:56;;;;;;;12.55;7.65;;;;;;;13.11;95.58;101768.53;2089452;28;20108;-60
2021/08/28 02:48:57;;;;;;;9.48;7.35;;;;;;;13.12;95.39;101770.25;2089448;28;20021;-60
2021/08/28 02:50:01;;;;;;;7.65;5.60;;;;;;;13.14;95.50;101771.03;2098645;28;20035;-60
2021/08/28 02:51:02;;;;;;;13.82;9.20;;;;;;;13.16;95.50;101775.34;2098402;28;20428;-60
2021/08/28 02:52:04;;;;;;;12.88;7.80;;;;;;;13.16;95.68;101775.34;2098447;28;20527;-61
2021/08/28 02:53:07;;;;;;;12.75;7.85;;;;;;;13.17;95.87;101777.06;2097665;28;20060;-60
2021/08/28 02:54:13;;;;;;;13.73;7.53;;;;;;;13.17;95.61;101770.06;2098376;28;20020;-61
2021/08/28 02:55:15;;;;;;;10.18;6.63;;;;;;;13.20;95.85;101775.19;2098355;28;20024;-61
2021/08/28 02:56:19;;;;;;;9.55;7.05;;;;;;;13.21;95.57;101776.03;2098456;28;20024;-60
2021/08/28 02:57:22;;;;;;;10.07;7.45;;;;;;;13.22;95.67;101772.50;2098370;28;20044;-60
2021/08/28 02:58:23;;;;;;;13.57;8.15;;;;;;;13.23;95.87;101768.97;2098265;28;20017;-60
2021/08/28 02:59:24;;;;;;;;;;;;;;;13.25;95.62;101762.75;2098733;28;20017;-60
2021/08/28 03:00:25;;;;;;;11.18;7.22;;;;;;;13.25;95.39;101761.91;2098426;28;19954;-59
2021/08/28 03:01:28;;;;;;;11.45;7.18;;;;;;;13.26;95.54;101767.09;2098398;28;20048;-59
2021/08/28 03:02:29;;;;;;;12.85;8.00;;;;;;;13.29;95.53;101762.63;2098398;28;20024;-61
2021/08/28 03:03:31;;;;;;;13.65;8.10;;;;;;;13.29;95.81;101758.25;2089455;28;20033;-60
2021/08/28 03:04:34;;;;;;;13.10;8.35;;;;;;;13.27;95.86;101760.06;2089621;28;20033;-60
2021/08/28 03:05:35;;;;;;;10.50;7.80;;;;;;;13.30;95.94;101754.72;2098423;28;20370;-62
2021/08/28 03:06:35;;;;;;;12.85;7.78;;;;;;;13.31;95.89;101755.56;2098429;28;20028;-60
2021/08/28 03:07:36;;;;;;;11.85;8.20;;;;;;;13.30;96.05;101749.47;2098344;28;20452;-60
2021/08/28 03:08:39;;;;;;;8.80;7.27;;;;;;;13.29;95.67;101750.38;2098317;28;20095;-60
2021/08/28 03:09:40;;;;;;;10.10;7.80;;;;;;;13.28;95.94;101748.69;2098351;28;20282;-61
2021/08/28 03:10:45;;;;;;;12.18;7.47;;;;;;;13.28;95.88;101751.31;2098337;28;20457;-60
2021/08/28 03:11:46;;;;;;;9.95;6.85;;;;;;;13.27;95.81;101752.19;2098269;28;20055;-61
2021/08/28 03:12:46;;;;;;;10.23;8.15;;;;;;;13.29;95.89;101752.13;2089396;28;20136;-61
2021/08/28 03:13:47;;;;;;;8.90;7.57;;;;;;;13.27;95.78;101749.56;2089549;28;20474;-60
2021/08/28 03:14:47;;;;;;;9.27;6.90;;;;;;;13.27;95.78;101749.56;2089401;28;20021;-60
2021/08/28 03:15:49;;;;;;;7.97;5.13;;;;;;;13.25;95.44;101757.50;2089505;28;20044;-59
2021/08/28 03:16:52;;;;;;;9.13;6.93;;;;;;;13.27;95.58;101750.44;2090249;28;20029;-60
2021/08/28 03:17:52;;;;;;;8.48;7.40;;;;;;;13.28;95.73;101756.56;2090083;28;20017;-60
2021/08/28 03:18:55;;;;;;;14.00;8.00;;;;;;;13.27;95.68;101757.44;2089238;28;20025;-60
2021/08/28 03:19:57;;;;;;;17.42;8.43;;;;;;;13.28;95.74;101756.56;2089524;28;20029;-61
2021/08/28 03:20:58;;;;;;;8.15;6.45;;;;;;;13.27;95.67;101752.19;2090041;28;20111;-60
2021/08/28 03:22:00;;;;;;;;;;;;;;;13.28;95.61;101753.94;2090479;28;20036;-59
2021/08/28 03:23:01;;;;;;;9.70;6.38;;;;;;;13.30;95.86;101753.84;2090027;28;20366;-60
2021/08/28 03:24:03;;;;;;;8.98;5.22;;;;;;;13.30;95.90;101754.72;2089843;28;20029;-60
2021/08/28 03:25:06;;;;;;;8.57;5.43;;;;;;;13.32;95.82;101752.91;2090118;28;20028;-61
2021/08/28 03:26:09;;;;;;;12.75;5.90;;;;;;;13.35;95.78;101752.75;2090104;28;20020;-61
2021/08/28 03:27:09;;;;;;;8.57;5.53;;;;;;;13.36;96.17;101757.09;2089955;28;20040;-61
2021/08/28 03:28:11;;;;;;;9.52;5.00;;;;;;;13.35;95.56;101752.75;2089998;28;20029;-60
2021/08/28 03:29:13;;;;;;;10.38;6.63;;;;;;;13.35;95.90;101752.75;2089256;28;20563;-59
2021/08/28 03:30:14;;;;;;;11.15;5.70;;;;;;;13.37;95.71;101753.56;2089410;28;20025;-60
2021/08/28 03:31:17;;;;;;;14.30;6.85;;;;;;;13.42;95.71;101757.75;2089979;28;20461;-59
2021/08/28 03:32:19;;;;;;;14.98;6.82;;;;;;;13.39;95.99;101751.72;2089959;28;20100;-61
2021/08/28 03:33:20;;;;;;;11.23;7.03;;;;;;;13.39;96.31;101754.31;2089950;28;20104;-61
2021/08/28 03:34:20;;;;;;;13.02;6.80;;;;;;;13.39;96.21;101743.84;2089228;28;20107;-61
2021/08/28 03:35:21;;;;;;;13.10;6.03;;;;;;;13.39;96.34;101754.31;2089293;28;20029;-60
2021/08/28 03:36:22;;;;;;;7.40;5.18;;;;;;;13.38;96.39;101754.41;2089278;28;20024;-60
2021/08/28 03:37:23;;;;;;;9.10;6.32;;;;;;;13.38;95.88;101742.16;2089927;28;20070;-60
2021/08/28 03:38:24;;;;;;;12.90;6.10;;;;;;;13.40;96.29;101744.72;2089888;28;20099;-61
2021/08/28 03:39:24;;;;;;;15.85;9.00;;;;;;;13.43;96.35;101748.97;2089943;28;20016;-61
2021/08/28 03:40:25;;;;;;;13.18;8.65;;;;;;;13.42;96.37;101744.66;2090017;28;20056;-60
2021/08/28 03:41:26;;;;;;;12.15;7.18;;;;;;;13.43;96.52;101738.47;2090011;28;20032;-61
2021/08/28 03:42:26;;;;;;;12.90;7.90;;;;;;;13.44;96.51;101742.84;2089289;28;20032;-62
2021/08/28 03:43:27;;;;;;;12.17;8.33;;;;;;;13.44;96.38;101742.84;2089428;28;20036;-61
2021/08/28 03:44:27;;;;;;;11.83;8.73;;;;;;;13.43;96.33;101747.22;2089950;28;20112;-60
2021/08/28 03:45:29;;;;;;;9.07;7.83;;;;;;;13.44;96.45;101748.06;2089936;28;20025;-61
2021/08/28 03:46:31;;;;;;;12.05;8.25;;;;;;;13.44;96.61;101758.56;2089961;28;20029;-60
2021/08/28 03:47:34;;;;;;;11.10;7.35;;;;;;;13.45;96.62;101752.41;2089825;28;20028;-60
2021/08/28 03:48:37;;;;;;;10.20;6.78;;;;;;;13.44;95.97;101754.16;2089849;28;20060;-59
2021/08/28 03:49:37;;;;;;;14.77;8.30;;;;;;;13.46;96.35;101751.47;2089973;28;20518;-60
2021/08/28 03:50:38;;;;;;;11.00;7.73;;;;;;;13.46;96.53;101746.22;2089936;28;20047;-60
2021/08/28 03:51:38;;;;;;;11.67;7.47;;;;;;;13.46;96.50;101754.09;2089919;28;20108;-60
2021/08/28 03:52:38;;;;;;;14.40;6.93;;;;;;;13.46;96.50;101764.59;2089964;28;20036;-60
2021/08/28 03:53:38;;;;;;;9.93;8.07;;;;;;;13.45;96.46;101749.78;2089920;28;20037;-61
2021/08/28 03:54:39;;;;;;;15.63;8.17;;;;;;;13.45;96.92;101761.09;2089985;28;20025;-61
2021/08/28 03:55:39;;;;;;;11.70;7.37;;;;;;;13.44;96.54;101748.06;2089988;28;20028;-60
2021/08/28 03:56:39;;;;;;;15.93;8.50;;;;;;;13.45;96.93;101762.88;2089853;28;20029;-61
2021/08/28 03:57:40;;;;;;;14.97;8.67;;;;;;;13.44;96.51;101753.31;2089899;28;20025;-61
2021/08/28 03:58:40;;;;;;;11.40;8.60;;;;;;;13.43;96.44;101748.97;2089828;28;20378;-60
2021/08/28 03:59:40;;;;;;;13.93;9.60;;;;;;;13.42;96.50;101752.50;2089805;28;20056;-60
2021/08/28 04:00:40;;;;;;;16.37;8.33;;;;;;;13.44;96.65;101763.81;2089884;28;20048;-60
2021/08/28 04:01:41;;;;;;;16.83;8.83;;;;;;;13.45;96.93;101757.66;2089921;28;20045;-60
2021/08/28 04:02:41;;;;;;;11.23;8.37;;;;;;;13.45;96.89;101757.66;2089875;28;20398;-60
2021/08/28 04:03:41;;;;;;;14.20;9.40;;;;;;;13.44;97.16;101758.56;2089934;28;20033;-60
2021/08/28 04:04:41;;;;;;;18.47;8.90;;;;;;;13.43;97.00;101756.84;2090860;28;20471;-60
2021/08/28 04:05:42;;;;;;;13.67;8.80;;;;;;;13.43;96.93;101756.84;2091415;28;20502;-59
2021/08/28 04:06:42;;;;;;;12.90;8.17;;;;;;;13.44;96.91;101753.31;2091442;28;20436;-61
2021/08/28 04:07:42;;;;;;;12.07;8.13;;;;;;;13.43;97.09;101760.31;2091309;28;20275;-59
2021/08/28 04:08:46;;;;;;;15.20;7.33;;;;;;;13.44;97.09;101748.06;2091376;28;20029;-59
2021/08/28 04:09:46;;;;;;;14.18;8.70;;;;;;;13.43;96.99;101754.22;2091314;28;20444;-60
2021/08/28 04:10:47;;;;;;;11.03;8.00;;;;;;;13.44;97.24;101751.53;2091313;28;20074;-60
2021/08/28 04:11:47;;;;;;;13.50;8.53;;;;;;;13.43;97.05;101749.84;2091249;28;20470;-60
2021/08/28 04:12:47;;;;;;;11.43;8.33;;;;;;;13.44;97.32;101750.69;2090641;28;20029;-60
2021/08/28 04:13:48;;;;;;;12.47;8.20;;;;;;;13.45;96.79;101748.00;2090786;28;20381;-60
2021/08/28 04:14:48;;;;;;;15.63;8.70;;;;;;;13.46;97.03;101746.22;2091344;28;20020;-61
2021/08/28 04:15:48;;;;;;;12.73;8.37;;;;;;;13.46;96.82;101751.47;2099588;28;20027;-61
2021/08/28 04:16:48;;;;;;;13.93;7.83;;;;;;;13.46;97.11;101754.09;2090659;28;20029;-61
2021/08/28 04:17:49;;;;;;;13.00;8.60;;;;;;;13.45;97.21;101742.75;2090676;28;20040;-60
2021/08/28 04:18:49;;;;;;;10.97;6.93;;;;;;;13.47;96.88;101747.94;2090482;28;20021;-60
2021/08/28 04:19:49;;;;;;;12.33;9.33;;;;;;;13.47;97.37;101754.03;2090591;28;20056;-61
2021/08/28 04:20:50;;;;;;;12.27;8.50;;;;;;;13.47;97.25;101750.56;2099512;28;20060;-60
2021/08/28 04:21:51;;;;;;;11.95;9.05;;;;;;;13.45;96.98;101747.16;2099539;28;20103;-61
2021/08/28 04:22:51;;;;;;;14.37;9.60;;;;;;;13.47;97.38;101745.31;2099512;28;20043;-61
2021/08/28 04:23:51;;;;;;;14.33;8.47;;;;;;;13.46;97.36;101744.47;2099527;28;20055;-61
2021/08/28 04:24:51;;;;;;;18.40;9.00;;;;;;;13.46;97.06;101739.22;2099349;28;20036;-59
2021/08/28 04:25:52;;;;;;;10.13;7.27;;;;;;;13.47;97.54;101747.94;2099540;28;20394;-60
2021/08/28 04:26:52;;;;;;;10.90;8.10;;;;;;;13.47;97.50;101740.06;2099517;28;20106;-60
2021/08/28 04:27:52;;;;;;;9.30;7.83;;;;;;;13.48;97.59;101752.28;2099489;28;20028;-60
2021/08/28 04:28:56;;;;;;;12.07;7.83;;;;;;;13.48;97.62;101747.03;2099478;28;20104;-60
2021/08/28 04:29:56;;;;;;;13.68;8.60;;;;;;;13.49;97.44;101751.38;2090426;28;20074;-62
2021/08/28 04:30:57;;;;;;;10.83;8.03;;;;;;;13.49;97.67;101740.91;2090572;28;20094;-60
2021/08/28 04:31:57;;;;;;;9.60;7.50;;;;;;;13.48;97.60;101741.78;2099363;28;20497;-60
2021/08/28 04:32:58;;;;;;;11.30;8.10;;;;;;;13.50;97.46;101745.22;2099481;28;20497;-60
2021/08/28 04:33:58;;;;;;;10.32;7.80;;;;;;;13.51;97.26;101747.78;2090457;28;20032;-61
2021/08/28 04:34:59;;;;;;;13.90;6.43;;;;;;;13.52;97.48;101744.25;2090649;28;20474;-61
2021/08/28 04:35:59;;;;;;;7.77;5.47;;;;;;;13.54;97.66;101754.66;2099321;28;20504;-60
2021/08/28 04:36:59;;;;;;;9.90;6.97;;;;;;;13.54;97.44;101749.44;2099389;28;20048;-62
2021/08/28 04:38:01;;;;;;;7.37;6.53;;;;;;;13.54;97.62;101746.81;2099377;28;20081;-59
2021/08/28 04:39:01;;;;;;;;;;;;;;;13.56;97.54;101750.22;2090845;28;20128;-61
2021/08/28 04:40:01;;;;;;;8.82;6.60;;;;;;;13.58;97.67;101758.03;2082199;28;19908;-60
2021/08/28 04:41:01;;;;;;;12.37;7.27;;;;;;;13.58;97.76;101753.63;2090479;28;20056;-60
2021/08/28 04:42:02;;;;;;;16.47;8.57;;;;;;;13.59;97.55;101755.31;2099327;28;20024;-60
2021/08/28 04:43:02;;;;;;;10.13;5.75;;;;;;;13.61;97.49;101752.66;2099330;28;20466;-60
2021/08/28 04:44:03;;;;;;;11.50;7.63;;;;;;;13.61;97.58;101748.25;2099323;28;20052;-61
2021/08/28 04:45:05;;;;;;;9.43;7.03;;;;;;;13.62;97.48;101746.50;2090406;28;20021;-61
2021/08/28 04:46:05;;;;;;;14.23;6.40;;;;;;;13.64;97.42;101758.63;2090625;28;20328;-61
2021/08/28 04:47:05;;;;;;;10.80;6.53;;;;;;;13.67;97.62;101751.53;2099345;28;20094;-61
2021/08/28 04:48:06;;;;;;;14.20;9.53;;;;;;;13.67;97.84;101754.16;2099289;28;20032;-61